createdAt,value
2019-02-12T00:00:21.868Z,0
2019-02-12T00:01:23.965Z,0
2019-02-12T00:02:26.092Z,0
2019-02-12T00:03:28.216Z,0
2019-02-12T00:04:30.721Z,0
2019-02-12T00:05:32.853Z,0
2019-02-12T00:06:34.970Z,0
2019-02-12T00:07:37.081Z,0
2019-02-12T00:08:39.768Z,0
2019-02-12T00:09:42.226Z,0
2019-02-12T00:10:44.641Z,0
2019-02-12T00:11:47.751Z,0
2019-02-12T00:12:50.214Z,0
2019-02-12T00:13:52.327Z,0
2019-02-12T00:14:55.144Z,0
2019-02-12T00:15:57.990Z,0
2019-02-12T00:17:00.096Z,0
2019-02-12T00:18:02.596Z,0
2019-02-12T00:19:05.011Z,0
2019-02-12T00:20:07.175Z,0
2019-02-12T00:21:10.783Z,0
2019-02-12T00:22:13.482Z,0
2019-02-12T00:23:15.893Z,0
2019-02-12T00:24:18.399Z,0
2019-02-12T00:25:20.812Z,0
2019-02-12T00:26:22.914Z,0
2019-02-12T00:27:25.033Z,0
2019-02-12T00:28:27.551Z,0
2019-02-12T00:29:29.970Z,0
2019-02-12T00:30:32.066Z,0
2019-02-12T00:31:34.179Z,0
2019-02-12T00:32:36.343Z,0
2019-02-12T00:33:38.458Z,0
2019-02-12T00:34:40.852Z,0
2019-02-12T00:35:42.965Z,0
2019-02-12T00:36:45.084Z,0
2019-02-12T00:37:47.801Z,0
2019-02-12T00:38:50.523Z,0
2019-02-12T00:39:52.916Z,0
2019-02-12T00:40:55.359Z,0
2019-02-12T00:41:57.481Z,0
2019-02-12T00:42:59.606Z,0
2019-02-12T00:44:02.002Z,0
2019-02-12T00:45:04.705Z,0
2019-02-12T00:46:07.127Z,0
2019-02-12T00:47:09.220Z,0
2019-02-12T00:48:11.366Z,0
2019-02-12T00:49:13.479Z,0
2019-02-12T00:50:15.575Z,0
2019-02-12T00:51:19.307Z,0
2019-02-12T00:52:21.434Z,0
2019-02-12T00:53:23.620Z,0
2019-02-12T00:54:26.482Z,0
2019-02-12T00:55:28.655Z,0
2019-02-12T00:56:31.153Z,0
2019-02-12T00:57:33.550Z,0
2019-02-12T00:58:35.940Z,0
2019-02-12T00:59:38.058Z,0
2019-02-12T01:00:40.219Z,0
2019-02-12T01:01:42.951Z,0
2019-02-12T01:02:45.425Z,0
2019-02-12T01:03:47.873Z,0
2019-02-12T01:04:50.371Z,0
2019-02-12T01:05:52.523Z,0
2019-02-12T01:06:54.640Z,0
2019-02-12T01:07:56.792Z,0
2019-02-12T01:08:58.907Z,0
2019-02-12T01:10:01.070Z,0
2019-02-12T01:11:03.184Z,0
2019-02-12T01:12:05.319Z,0
2019-02-12T01:13:07.415Z,0
2019-02-12T01:14:09.818Z,0
2019-02-12T01:15:12.203Z,0
2019-02-12T01:16:14.335Z,0
2019-02-12T01:17:16.436Z,0
2019-02-12T01:18:18.832Z,0
2019-02-12T01:19:20.957Z,0
2019-02-12T01:20:23.342Z,0
2019-02-12T01:21:27.909Z,0
2019-02-12T01:22:30.018Z,0
2019-02-12T01:23:32.417Z,0
2019-02-12T01:24:34.531Z,0
2019-02-12T01:25:36.943Z,0
2019-02-12T01:26:39.053Z,0
2019-02-12T01:27:41.171Z,0
2019-02-12T01:28:43.290Z,0
2019-02-12T01:29:45.385Z,0
2019-02-12T01:30:47.808Z,0
2019-02-12T01:31:50.619Z,0
2019-02-12T01:32:52.727Z,0
2019-02-12T01:33:55.172Z,0
2019-02-12T01:34:58.034Z,0
2019-02-12T01:36:00.132Z,0
2019-02-12T01:37:02.269Z,0
2019-02-12T01:38:04.694Z,0
2019-02-12T01:39:07.475Z,0
2019-02-12T01:40:09.597Z,0
2019-02-12T01:41:12.023Z,0
2019-02-12T01:42:14.120Z,0
2019-02-12T01:43:16.238Z,0
2019-02-12T01:44:18.356Z,0
2019-02-12T01:45:20.498Z,0
2019-02-12T01:46:22.606Z,0
2019-02-12T01:47:24.721Z,0
2019-02-12T01:48:27.226Z,0
2019-02-12T01:49:29.354Z,0
2019-02-12T01:50:31.479Z,0
2019-02-12T01:51:37.231Z,0
2019-02-12T01:52:39.632Z,0
2019-02-12T01:53:42.417Z,0
2019-02-12T01:54:44.830Z,0
2019-02-12T01:55:46.938Z,0
2019-02-12T01:56:49.043Z,0
2019-02-12T01:57:51.463Z,0
2019-02-12T01:58:53.580Z,0
2019-02-12T01:59:55.695Z,0
2019-02-12T02:00:58.107Z,0
2019-02-12T02:02:00.503Z,0
2019-02-12T02:03:02.999Z,0
2019-02-12T02:04:05.427Z,0
2019-02-12T02:05:07.551Z,0
2019-02-12T02:06:09.935Z,0
2019-02-12T02:07:12.053Z,0
2019-02-12T02:08:14.173Z,0
2019-02-12T02:09:16.575Z,0
2019-02-12T02:10:18.994Z,0
2019-02-12T02:11:21.102Z,0
2019-02-12T02:12:23.220Z,0
2019-02-12T02:13:25.315Z,0
2019-02-12T02:14:27.437Z,0
2019-02-12T02:15:29.844Z,0
2019-02-12T02:16:31.956Z,0
2019-02-12T02:17:34.475Z,0
2019-02-12T02:18:36.567Z,0
2019-02-12T02:19:38.706Z,0
2019-02-12T02:20:41.524Z,0
2019-02-12T02:21:46.253Z,0
2019-02-12T02:22:48.349Z,0
2019-02-12T02:23:50.767Z,0
2019-02-12T02:24:53.544Z,0
2019-02-12T02:25:55.657Z,0
2019-02-12T02:26:57.787Z,0
2019-02-12T02:27:59.898Z,0
2019-02-12T02:29:02.009Z,0
2019-02-12T02:30:04.477Z,0
2019-02-12T02:31:06.904Z,0
2019-02-12T02:32:09.373Z,0
2019-02-12T02:33:11.813Z,0
2019-02-12T02:34:13.982Z,0
2019-02-12T02:35:17.094Z,0
2019-02-12T02:36:19.504Z,0
2019-02-12T02:37:21.904Z,0
2019-02-12T02:38:24.309Z,0
2019-02-12T02:39:26.453Z,0
2019-02-12T02:40:29.029Z,0
2019-02-12T02:41:32.176Z,0
2019-02-12T02:42:34.301Z,0
2019-02-12T02:43:36.480Z,0
2019-02-12T02:44:38.598Z,0
2019-02-12T02:45:40.727Z,0
2019-02-12T02:46:43.165Z,0
2019-02-12T02:47:45.293Z,0
2019-02-12T02:48:48.142Z,0
2019-02-12T02:49:50.269Z,0
2019-02-12T02:50:52.394Z,0
2019-02-12T02:51:55.536Z,0
2019-02-12T02:52:57.942Z,0
2019-02-12T02:54:00.063Z,0
2019-02-12T02:55:02.626Z,0
2019-02-12T02:56:04.761Z,0
2019-02-12T02:57:06.905Z,0
2019-02-12T02:58:09.708Z,0
2019-02-12T02:59:12.182Z,0
2019-02-12T03:00:14.578Z,0
2019-02-12T03:01:17.117Z,0
2019-02-12T03:02:19.274Z,0
2019-02-12T03:03:21.709Z,0
2019-02-12T03:04:23.830Z,0
2019-02-12T03:05:25.946Z,0
2019-02-12T03:06:28.090Z,0
2019-02-12T03:07:30.604Z,0
2019-02-12T03:08:33.106Z,0
2019-02-12T03:09:35.243Z,0
2019-02-12T03:10:37.670Z,0
2019-02-12T03:11:40.182Z,0
2019-02-12T03:12:42.980Z,0
2019-02-12T03:13:45.116Z,0
2019-02-12T03:14:47.557Z,0
2019-02-12T03:15:49.991Z,0
2019-02-12T03:16:52.092Z,0
2019-02-12T03:17:54.602Z,0
2019-02-12T03:18:57.044Z,0
2019-02-12T03:19:59.451Z,0
2019-02-12T03:21:02.237Z,0
2019-02-12T03:22:05.581Z,0
2019-02-12T03:23:07.972Z,0
2019-02-12T03:24:10.092Z,0
2019-02-12T03:25:12.646Z,0
2019-02-12T03:26:15.334Z,0
2019-02-12T03:27:17.745Z,0
2019-02-12T03:28:20.145Z,0
2019-02-12T03:29:22.881Z,0
2019-02-12T03:30:25.674Z,0
2019-02-12T03:31:28.309Z,0
2019-02-12T03:32:31.736Z,0
2019-02-12T03:33:33.859Z,0
2019-02-12T03:34:35.994Z,0
2019-02-12T03:35:38.127Z,0
2019-02-12T03:36:40.261Z,0
2019-02-12T03:37:42.665Z,0
2019-02-12T03:38:45.067Z,0
2019-02-12T03:39:47.176Z,0
2019-02-12T03:40:50.277Z,0
2019-02-12T03:41:52.697Z,0
2019-02-12T03:42:54.822Z,0
2019-02-12T03:43:57.249Z,0
2019-02-12T03:44:59.356Z,0
2019-02-12T03:46:01.880Z,0
2019-02-12T03:47:04.003Z,0
2019-02-12T03:48:06.691Z,0
2019-02-12T03:49:09.126Z,0
2019-02-12T03:50:11.214Z,0
2019-02-12T03:51:13.699Z,0
2019-02-12T03:52:16.224Z,0
2019-02-12T03:53:18.348Z,0
2019-02-12T03:54:20.450Z,0
2019-02-12T03:55:22.872Z,0
2019-02-12T03:56:25.275Z,0
2019-02-12T03:57:27.384Z,0
2019-02-12T03:58:29.515Z,0
2019-02-12T03:59:31.622Z,0
2019-02-12T04:00:33.752Z,0
2019-02-12T04:01:36.602Z,0
2019-02-12T04:02:38.785Z,0
2019-02-12T04:03:40.888Z,0
2019-02-12T04:04:43.405Z,0
2019-02-12T04:05:45.553Z,0
2019-02-12T04:06:47.664Z,0
2019-02-12T04:07:50.479Z,0
2019-02-12T04:08:52.593Z,0
2019-02-12T04:09:55.078Z,0
2019-02-12T04:10:57.202Z,0
2019-02-12T04:11:59.727Z,0
2019-02-12T04:13:01.837Z,0
2019-02-12T04:14:03.966Z,0
2019-02-12T04:15:06.093Z,0
2019-02-12T04:16:08.317Z,0
2019-02-12T04:17:10.442Z,0
2019-02-12T04:18:12.568Z,0
2019-02-12T04:19:14.706Z,0
2019-02-12T04:20:17.175Z,0
2019-02-12T04:21:19.290Z,0
2019-02-12T04:22:24.505Z,0
2019-02-12T04:23:26.910Z,0
2019-02-12T04:24:29.031Z,0
2019-02-12T04:25:31.432Z,0
2019-02-12T04:26:33.555Z,0
2019-02-12T04:27:35.719Z,0
2019-02-12T04:28:37.855Z,0
2019-02-12T04:29:40.300Z,0
2019-02-12T04:30:42.415Z,0
2019-02-12T04:31:44.562Z,0
2019-02-12T04:32:46.668Z,0
2019-02-12T04:33:49.176Z,0
2019-02-12T04:34:51.287Z,0
2019-02-12T04:35:53.726Z,0
2019-02-12T04:36:56.181Z,0
2019-02-12T04:37:58.986Z,0
2019-02-12T04:39:01.113Z,0
2019-02-12T04:40:03.631Z,0
2019-02-12T04:41:06.053Z,0
2019-02-12T04:42:08.180Z,0
2019-02-12T04:43:10.561Z,0
2019-02-12T04:44:13.067Z,0
2019-02-12T04:45:15.599Z,0
2019-02-12T04:46:18.008Z,0
2019-02-12T04:47:20.153Z,0
2019-02-12T04:48:22.864Z,0
2019-02-12T04:49:24.972Z,0
2019-02-12T04:50:27.089Z,0
2019-02-12T04:51:29.969Z,0
2019-02-12T04:52:33.575Z,0
2019-02-12T04:53:35.713Z,0
2019-02-12T04:54:37.829Z,0
2019-02-12T04:55:39.939Z,0
2019-02-12T04:56:42.076Z,0
2019-02-12T04:57:44.192Z,0
2019-02-12T04:58:46.702Z,0
2019-02-12T04:59:48.815Z,0
2019-02-12T05:00:50.959Z,0
2019-02-12T05:01:53.084Z,0
2019-02-12T05:02:55.203Z,0
2019-02-12T05:03:58.154Z,0
2019-02-12T05:05:00.357Z,0
2019-02-12T05:06:02.816Z,0
2019-02-12T05:07:05.356Z,0
2019-02-12T05:08:07.491Z,0
2019-02-12T05:09:10.174Z,0
2019-02-12T05:10:12.685Z,0
2019-02-12T05:11:14.795Z,0
2019-02-12T05:12:16.962Z,0
2019-02-12T05:13:19.096Z,0
2019-02-12T05:14:21.265Z,0
2019-02-12T05:15:24.259Z,0
2019-02-12T05:16:26.401Z,0
2019-02-12T05:17:28.520Z,0
2019-02-12T05:18:30.667Z,0
2019-02-12T05:19:32.796Z,0
2019-02-12T05:20:35.596Z,0
2019-02-12T05:21:37.723Z,0
2019-02-12T05:22:45.779Z,0
2019-02-12T05:23:48.574Z,0
2019-02-12T05:24:51.078Z,0
2019-02-12T05:25:53.216Z,0
2019-02-12T05:26:55.330Z,0
2019-02-12T05:27:57.919Z,0
2019-02-12T05:29:00.058Z,0
2019-02-12T05:30:02.559Z,0
2019-02-12T05:31:04.992Z,0
2019-02-12T05:32:07.121Z,0
2019-02-12T05:33:09.535Z,0
2019-02-12T05:34:11.647Z,0
2019-02-12T05:35:14.071Z,0
2019-02-12T05:36:16.180Z,0
2019-02-12T05:37:18.318Z,0
2019-02-12T05:38:20.431Z,0
2019-02-12T05:39:23.287Z,0
2019-02-12T05:40:26.022Z,0
2019-02-12T05:41:28.143Z,0
2019-02-12T05:42:30.588Z,0
2019-02-12T05:43:33.013Z,0
2019-02-12T05:44:35.189Z,0
2019-02-12T05:45:38.198Z,0
2019-02-12T05:46:40.440Z,0
2019-02-12T05:47:43.259Z,0
2019-02-12T05:48:45.780Z,0
2019-02-12T05:49:47.953Z,0
2019-02-12T05:50:50.777Z,0
2019-02-12T05:51:52.902Z,0
2019-02-12T05:52:56.863Z,0
2019-02-12T05:53:58.996Z,0
2019-02-12T05:55:01.553Z,0
2019-02-12T05:56:03.719Z,0
2019-02-12T05:57:06.487Z,0
2019-02-12T05:58:08.598Z,0
2019-02-12T05:59:10.754Z,0
2019-02-12T06:00:12.908Z,0
2019-02-12T06:01:15.310Z,0
2019-02-12T06:02:18.042Z,0
2019-02-12T06:03:20.142Z,0
2019-02-12T06:04:22.547Z,0
2019-02-12T06:05:25.078Z,0
2019-02-12T06:06:27.582Z,0
2019-02-12T06:07:30.280Z,0
2019-02-12T06:08:32.816Z,0
2019-02-12T06:09:34.949Z,0
2019-02-12T06:10:37.356Z,0
2019-02-12T06:11:39.488Z,0
2019-02-12T06:12:41.650Z,0
2019-02-12T06:13:43.782Z,0
2019-02-12T06:14:46.233Z,0
2019-02-12T06:15:48.856Z,0
2019-02-12T06:16:51.290Z,0
2019-02-12T06:17:53.413Z,0
2019-02-12T06:18:55.528Z,0
2019-02-12T06:19:57.954Z,0
2019-02-12T06:21:00.068Z,0
2019-02-12T06:22:02.245Z,0
2019-02-12T06:23:06.152Z,0
2019-02-12T06:24:08.602Z,0
2019-02-12T06:25:11.905Z,0
2019-02-12T06:26:14.733Z,0
2019-02-12T06:27:17.129Z,0
2019-02-12T06:28:19.242Z,0
2019-02-12T06:29:21.364Z,0
2019-02-12T06:30:23.777Z,0
2019-02-12T06:31:26.586Z,0
2019-02-12T06:32:29.359Z,0
2019-02-12T06:33:31.749Z,0
2019-02-12T06:34:34.149Z,1
2019-02-12T06:35:36.278Z,1
2019-02-12T06:36:38.773Z,1
2019-02-12T06:37:40.896Z,1
2019-02-12T06:38:43.021Z,1
2019-02-12T06:39:45.563Z,1
2019-02-12T06:40:48.364Z,1
2019-02-12T06:41:50.769Z,1
2019-02-12T06:42:53.204Z,2
2019-02-12T06:43:55.738Z,2
2019-02-12T06:44:58.561Z,2
2019-02-12T06:46:01.072Z,2
2019-02-12T06:47:03.487Z,2
2019-02-12T06:48:05.890Z,2
2019-02-12T06:49:08.602Z,2
2019-02-12T06:50:11.002Z,2
2019-02-12T06:51:13.113Z,2
2019-02-12T06:52:15.225Z,2
2019-02-12T06:53:17.741Z,3
2019-02-12T06:54:19.852Z,3
2019-02-12T06:55:22.651Z,2
2019-02-12T06:56:24.770Z,3
2019-02-12T06:57:26.891Z,3
2019-02-12T06:58:28.992Z,3
2019-02-12T06:59:31.117Z,3
2019-02-12T07:00:33.241Z,3
2019-02-12T07:01:35.362Z,4
2019-02-12T07:02:37.494Z,4
2019-02-12T07:03:39.890Z,5
2019-02-12T07:04:41.987Z,5
2019-02-12T07:05:44.531Z,6
2019-02-12T07:06:47.030Z,6
2019-02-12T07:07:49.547Z,6
2019-02-12T07:08:51.980Z,7
2019-02-12T07:09:54.537Z,8
2019-02-12T07:10:56.669Z,9
2019-02-12T07:11:59.102Z,9
2019-02-12T07:13:04.299Z,10
2019-02-12T07:14:07.035Z,10
2019-02-12T07:15:09.452Z,10
2019-02-12T07:16:11.570Z,10
2019-02-12T07:17:13.678Z,11
2019-02-12T07:18:15.812Z,11
2019-02-12T07:19:17.915Z,11
2019-02-12T07:20:20.413Z,12
2019-02-12T07:21:22.523Z,11
2019-02-12T07:22:25.743Z,12
2019-02-12T07:23:28.424Z,12
2019-02-12T07:24:30.894Z,14
2019-02-12T07:25:33.306Z,20
2019-02-12T07:26:36.091Z,18
2019-02-12T07:27:38.260Z,20
2019-02-12T07:28:40.371Z,21
2019-02-12T07:29:43.449Z,24
2019-02-12T07:30:45.557Z,32
2019-02-12T07:31:47.683Z,35
2019-02-12T07:32:49.792Z,37
2019-02-12T07:33:52.715Z,39
2019-02-12T07:34:55.125Z,41
2019-02-12T07:35:57.232Z,44
2019-02-12T07:36:59.792Z,44
2019-02-12T07:38:01.914Z,44
2019-02-12T07:39:04.013Z,44
2019-02-12T07:40:06.419Z,46
2019-02-12T07:41:08.850Z,46
2019-02-12T07:42:12.365Z,49
2019-02-12T07:43:14.496Z,52
2019-02-12T07:44:16.608Z,54
2019-02-12T07:45:19.080Z,55
2019-02-12T07:46:21.194Z,56
2019-02-12T07:47:23.911Z,57
2019-02-12T07:48:27.284Z,59
2019-02-12T07:49:29.702Z,61
2019-02-12T07:50:31.822Z,61
2019-02-12T07:51:34.250Z,64
2019-02-12T07:52:36.396Z,67
2019-02-12T07:53:39.182Z,57
2019-02-12T07:54:41.591Z,55
2019-02-12T07:55:44.431Z,70
2019-02-12T07:56:46.867Z,71
2019-02-12T07:57:48.982Z,73
2019-02-12T07:58:51.385Z,76
2019-02-12T07:59:54.594Z,77
2019-02-12T08:00:57.109Z,78
2019-02-12T08:01:59.792Z,80
2019-02-12T08:03:01.932Z,82
2019-02-12T08:04:04.051Z,84
2019-02-12T08:05:06.560Z,84
2019-02-12T08:06:09.363Z,85
2019-02-12T08:07:11.504Z,84
2019-02-12T08:08:14.207Z,84
2019-02-12T08:09:17.017Z,85
2019-02-12T08:10:19.528Z,86
2019-02-12T08:11:21.661Z,87
2019-02-12T08:12:24.382Z,88
2019-02-12T08:13:26.792Z,87
2019-02-12T08:14:28.915Z,86
2019-02-12T08:15:31.712Z,90
2019-02-12T08:16:34.158Z,92
2019-02-12T08:17:36.680Z,97
2019-02-12T08:18:39.205Z,97
2019-02-12T08:19:42.603Z,94
2019-02-12T08:20:45.698Z,97
2019-02-12T08:21:48.378Z,98
2019-02-12T08:22:50.794Z,102
2019-02-12T08:23:52.929Z,101
2019-02-12T08:24:55.046Z,96
2019-02-12T08:25:57.198Z,100
2019-02-12T08:26:59.612Z,108
2019-02-12T08:28:02.451Z,113
2019-02-12T08:29:05.638Z,115
2019-02-12T08:30:07.788Z,110
2019-02-12T08:31:09.917Z,113
2019-02-12T08:32:12.711Z,112
2019-02-12T08:33:14.857Z,112
2019-02-12T08:34:17.269Z,114
2019-02-12T08:35:19.979Z,115
2019-02-12T08:36:22.820Z,114
2019-02-12T08:37:25.358Z,116
2019-02-12T08:38:28.071Z,118
2019-02-12T08:39:30.200Z,122
2019-02-12T08:40:32.315Z,124
2019-02-12T08:41:34.735Z,127
2019-02-12T08:42:37.608Z,133
2019-02-12T08:43:43.384Z,132
2019-02-12T08:44:47.104Z,136
2019-02-12T08:45:49.511Z,136
2019-02-12T08:46:54.100Z,131
2019-02-12T08:47:56.543Z,131
2019-02-12T08:48:59.050Z,129
2019-02-12T08:50:02.476Z,135
2019-02-12T08:51:05.293Z,137
2019-02-12T08:52:07.830Z,141
2019-02-12T08:53:09.945Z,142
2019-02-12T08:54:12.097Z,141
2019-02-12T08:55:14.228Z,145
2019-02-12T08:56:16.362Z,145
2019-02-12T08:57:18.807Z,146
2019-02-12T08:58:21.307Z,151
2019-02-12T08:59:23.731Z,151
2019-02-12T09:00:26.858Z,153
2019-02-12T09:01:29.281Z,152
2019-02-12T09:02:31.449Z,153
2019-02-12T09:03:34.021Z,158
2019-02-12T09:04:36.544Z,158
2019-02-12T09:05:38.956Z,153
2019-02-12T09:06:41.137Z,150
2019-02-12T09:07:43.559Z,153
2019-02-12T09:08:45.690Z,157
2019-02-12T09:09:48.219Z,155
2019-02-12T09:10:50.644Z,157
2019-02-12T09:11:52.758Z,166
2019-02-12T09:12:55.854Z,166
2019-02-12T09:13:58.496Z,149
2019-02-12T09:15:01.812Z,160
2019-02-12T09:16:04.843Z,162
2019-02-12T09:17:07.274Z,168
2019-02-12T09:18:09.395Z,177
2019-02-12T09:19:11.853Z,176
2019-02-12T09:20:14.273Z,173
2019-02-12T09:21:16.692Z,169
2019-02-12T09:22:19.102Z,176
2019-02-12T09:23:21.243Z,173
2019-02-12T09:24:23.657Z,176
2019-02-12T09:25:25.783Z,180
2019-02-12T09:26:27.898Z,182
2019-02-12T09:27:30.041Z,179
2019-02-12T09:28:32.176Z,177
2019-02-12T09:29:34.893Z,184
2019-02-12T09:30:38.419Z,192
2019-02-12T09:31:40.927Z,195
2019-02-12T09:32:43.793Z,194
2019-02-12T09:33:46.240Z,192
2019-02-12T09:34:48.689Z,189
2019-02-12T09:35:51.545Z,183
2019-02-12T09:36:53.704Z,188
2019-02-12T09:37:55.827Z,201
2019-02-12T09:38:57.946Z,197
2019-02-12T09:40:00.083Z,199
2019-02-12T09:41:02.239Z,192
2019-02-12T09:42:04.658Z,179
2019-02-12T09:43:06.803Z,178
2019-02-12T09:44:09.238Z,198
2019-02-12T09:45:11.649Z,197
2019-02-12T09:46:14.369Z,202
2019-02-12T09:47:16.823Z,202
2019-02-12T09:48:18.982Z,198
2019-02-12T09:49:21.424Z,199
2019-02-12T09:50:23.945Z,202
2019-02-12T09:51:26.074Z,211
2019-02-12T09:52:28.224Z,188
2019-02-12T09:53:30.386Z,150
2019-02-12T09:54:32.510Z,207
2019-02-12T09:55:35.163Z,202
2019-02-12T09:56:37.549Z,205
2019-02-12T09:57:39.967Z,211
2019-02-12T09:58:42.148Z,212
2019-02-12T09:59:44.662Z,205
2019-02-12T10:00:46.796Z,203
2019-02-12T10:01:49.242Z,204
2019-02-12T10:02:51.673Z,206
2019-02-12T10:03:54.475Z,205
2019-02-12T10:04:56.924Z,205
2019-02-12T10:05:59.350Z,217
2019-02-12T10:07:02.381Z,213
2019-02-12T10:08:05.205Z,200
2019-02-12T10:09:07.639Z,203
2019-02-12T10:10:10.041Z,216
2019-02-12T10:11:12.180Z,208
2019-02-12T10:12:14.321Z,221
2019-02-12T10:13:16.431Z,226
2019-02-12T10:14:18.578Z,214
2019-02-12T10:15:21.010Z,209
2019-02-12T10:16:24.109Z,210
2019-02-12T10:17:26.242Z,217
2019-02-12T10:18:28.675Z,216
2019-02-12T10:19:30.808Z,221
2019-02-12T10:20:33.100Z,222
2019-02-12T10:21:35.230Z,215
2019-02-12T10:22:37.357Z,222
2019-02-12T10:23:39.562Z,215
2019-02-12T10:24:42.434Z,211
2019-02-12T10:25:44.857Z,216
2019-02-12T10:26:47.305Z,222
2019-02-12T10:27:49.827Z,222
2019-02-12T10:28:51.968Z,227
2019-02-12T10:29:54.120Z,226
2019-02-12T10:30:56.533Z,217
2019-02-12T10:32:08.182Z,228
2019-02-12T10:33:10.525Z,231
2019-02-12T10:34:13.040Z,240
2019-02-12T10:35:15.470Z,235
2019-02-12T10:36:18.287Z,231
2019-02-12T10:37:20.418Z,225
2019-02-12T10:38:22.558Z,222
2019-02-12T10:39:25.391Z,212
2019-02-12T10:40:28.778Z,215
2019-02-12T10:41:31.502Z,240
2019-02-12T10:42:33.969Z,247
2019-02-12T10:43:36.391Z,232
2019-02-12T10:44:38.831Z,214
2019-02-12T10:45:40.960Z,215
2019-02-12T10:46:43.074Z,225
2019-02-12T10:47:45.500Z,226
2019-02-12T10:48:47.632Z,220
2019-02-12T10:49:50.800Z,218
2019-02-12T10:50:52.935Z,220
2019-02-12T10:51:55.086Z,221
2019-02-12T10:52:57.511Z,219
2019-02-12T10:53:59.962Z,228
2019-02-12T10:55:02.402Z,224
2019-02-12T10:56:06.296Z,237
2019-02-12T10:57:08.433Z,240
2019-02-12T10:58:10.585Z,235
2019-02-12T10:59:15.369Z,235
2019-02-12T11:00:17.508Z,232
2019-02-12T11:01:19.638Z,238
2019-02-12T11:02:21.755Z,229
2019-02-12T11:03:23.903Z,228
2019-02-12T11:04:26.044Z,237
2019-02-12T11:05:28.180Z,245
2019-02-12T11:06:30.688Z,239
2019-02-12T11:07:32.845Z,237
2019-02-12T11:08:34.957Z,242
2019-02-12T11:09:37.093Z,233
2019-02-12T11:10:39.223Z,226
2019-02-12T11:11:41.728Z,239
2019-02-12T11:12:43.881Z,241
2019-02-12T11:13:46.024Z,239
2019-02-12T11:14:48.151Z,234
2019-02-12T11:15:50.277Z,246
2019-02-12T11:16:52.410Z,247
2019-02-12T11:17:54.531Z,241
2019-02-12T11:18:57.040Z,238
2019-02-12T11:19:59.473Z,238
2019-02-12T11:21:01.585Z,237
2019-02-12T11:22:03.721Z,253
2019-02-12T11:23:05.855Z,247
2019-02-12T11:24:07.983Z,234
2019-02-12T11:25:10.117Z,239
2019-02-12T11:26:12.257Z,247
2019-02-12T11:27:14.382Z,236
2019-02-12T11:28:16.511Z,246
2019-02-12T11:29:18.660Z,241
2019-02-12T11:30:21.073Z,237
2019-02-12T11:31:23.188Z,243
2019-02-12T11:32:25.619Z,251
2019-02-12T11:33:27.744Z,249
2019-02-12T11:34:29.888Z,242
2019-02-12T11:35:32.323Z,238
2019-02-12T11:36:34.450Z,241
2019-02-12T11:37:36.582Z,241
2019-02-12T11:38:38.709Z,238
2019-02-12T11:39:40.843Z,227
2019-02-12T11:40:42.964Z,220
2019-02-12T11:41:45.102Z,225
2019-02-12T11:42:47.238Z,242
2019-02-12T11:43:49.674Z,255
2019-02-12T11:44:51.818Z,266
2019-02-12T11:45:53.937Z,263
2019-02-12T11:46:56.071Z,257
2019-02-12T11:47:58.884Z,253
2019-02-12T11:49:01.061Z,264
2019-02-12T11:50:03.183Z,263
2019-02-12T11:51:05.334Z,254
2019-02-12T11:52:07.501Z,265
2019-02-12T11:53:09.918Z,276
2019-02-12T11:54:12.051Z,262
2019-02-12T11:55:14.179Z,256
2019-02-12T11:56:16.323Z,254
2019-02-12T11:57:18.470Z,261
2019-02-12T11:58:20.905Z,260
2019-02-12T11:59:23.048Z,257
2019-02-12T12:00:25.166Z,268
2019-02-12T12:01:27.297Z,269
2019-02-12T12:02:29.439Z,257
2019-02-12T12:03:32.240Z,247
2019-02-12T12:04:34.747Z,242
2019-02-12T12:05:36.895Z,235
2019-02-12T12:06:39.024Z,238
2019-02-12T12:07:41.159Z,245
2019-02-12T12:08:43.297Z,242
2019-02-12T12:09:45.413Z,236
2019-02-12T12:10:47.549Z,237
2019-02-12T12:11:49.683Z,223
2019-02-12T12:12:51.839Z,244
2019-02-12T12:13:53.990Z,252
2019-02-12T12:14:56.147Z,252
2019-02-12T12:15:58.560Z,248
2019-02-12T12:17:00.676Z,255
2019-02-12T12:18:03.236Z,260
2019-02-12T12:19:05.359Z,264
2019-02-12T12:20:07.487Z,64
2019-02-12T12:21:09.614Z,231
2019-02-12T12:22:11.759Z,250
2019-02-12T12:23:13.877Z,246
2019-02-12T12:24:16.018Z,202
2019-02-12T12:25:18.155Z,77
2019-02-12T12:26:20.265Z,239
2019-02-12T12:27:22.411Z,241
2019-02-12T12:28:24.535Z,227
2019-02-12T12:29:26.656Z,183
2019-02-12T12:30:29.060Z,242
2019-02-12T12:31:31.197Z,227
2019-02-12T12:32:33.322Z,236
2019-02-12T12:33:35.460Z,231
2019-02-12T12:34:37.592Z,221
2019-02-12T12:35:39.725Z,237
2019-02-12T12:36:41.852Z,241
2019-02-12T12:37:44.275Z,230
2019-02-12T12:38:46.384Z,235
2019-02-12T12:39:48.518Z,233
2019-02-12T12:40:51.089Z,241
2019-02-12T12:41:53.201Z,242
2019-02-12T12:42:55.370Z,231
2019-02-12T12:43:57.539Z,229
2019-02-12T12:45:00.207Z,234
2019-02-12T12:46:02.637Z,242
2019-02-12T12:47:04.795Z,244
2019-02-12T12:48:07.226Z,241
2019-02-12T12:49:09.378Z,229
2019-02-12T12:50:11.538Z,228
2019-02-12T12:51:14.051Z,226
2019-02-12T12:52:16.252Z,224
2019-02-12T12:53:18.671Z,196
2019-02-12T12:54:21.104Z,202
2019-02-12T12:55:23.256Z,228
2019-02-12T12:56:25.423Z,221
2019-02-12T12:57:27.592Z,221
2019-02-12T12:58:29.759Z,212
2019-02-12T12:59:31.918Z,215
2019-02-12T13:00:34.448Z,210
2019-02-12T13:01:37.292Z,216
2019-02-12T13:02:39.454Z,221
2019-02-12T13:03:41.895Z,226
2019-02-12T13:04:44.012Z,220
2019-02-12T13:05:46.141Z,204
2019-02-12T13:06:48.264Z,216
2019-02-12T13:07:50.403Z,212
2019-02-12T13:08:52.539Z,218
2019-02-12T13:09:54.666Z,214
2019-02-12T13:10:56.813Z,200
2019-02-12T13:11:58.924Z,195
2019-02-12T13:13:01.075Z,192
2019-02-12T13:14:03.632Z,151
2019-02-12T13:15:05.749Z,191
2019-02-12T13:16:08.335Z,195
2019-02-12T13:17:12.436Z,205
2019-02-12T13:18:14.575Z,188
2019-02-12T13:19:16.696Z,196
2019-02-12T13:20:19.442Z,146
2019-02-12T13:21:21.566Z,131
2019-02-12T13:22:23.693Z,127
2019-02-12T13:23:25.832Z,113
2019-02-12T13:24:27.938Z,107
2019-02-12T13:25:30.087Z,85
2019-02-12T13:26:32.504Z,90
2019-02-12T13:27:34.652Z,86
2019-02-12T13:28:36.759Z,84
2019-02-12T13:29:38.900Z,75
2019-02-12T13:30:41.046Z,68
2019-02-12T13:31:43.168Z,69
2019-02-12T13:32:45.371Z,73
2019-02-12T13:33:47.793Z,76
2019-02-12T13:34:49.931Z,74
2019-02-12T13:35:52.349Z,74
2019-02-12T13:36:54.470Z,71
2019-02-12T13:37:57.023Z,70
2019-02-12T13:38:59.473Z,69
2019-02-12T13:40:01.893Z,68
2019-02-12T13:41:04.024Z,68
2019-02-12T13:42:06.459Z,67
2019-02-12T13:43:08.862Z,67
2019-02-12T13:44:11.268Z,66
2019-02-12T13:45:13.693Z,67
2019-02-12T13:46:15.868Z,65
2019-02-12T13:47:17.991Z,64
2019-02-12T13:48:20.109Z,63
2019-02-12T13:49:22.253Z,62
2019-02-12T13:50:24.766Z,60
2019-02-12T13:51:26.894Z,59
2019-02-12T13:52:29.306Z,56
2019-02-12T13:53:31.489Z,54
2019-02-12T13:54:33.617Z,52
2019-02-12T13:55:35.747Z,51
2019-02-12T13:56:37.884Z,51
2019-02-12T13:57:39.991Z,50
2019-02-12T13:58:42.186Z,48
2019-02-12T13:59:44.317Z,47
2019-02-12T14:00:46.465Z,60
2019-02-12T14:01:48.579Z,44
2019-02-12T14:02:50.723Z,51
2019-02-12T14:03:53.962Z,44
2019-02-12T14:04:56.367Z,45
2019-02-12T14:05:59.286Z,38
2019-02-12T14:07:01.751Z,69
2019-02-12T14:08:05.907Z,69
2019-02-12T14:09:08.389Z,61
2019-02-12T14:10:10.903Z,55
2019-02-12T14:11:13.318Z,63
2019-02-12T14:12:17.156Z,54
2019-02-12T14:13:19.269Z,51
2019-02-12T14:14:21.398Z,48
2019-02-12T14:15:23.811Z,44
2019-02-12T14:16:25.935Z,45
2019-02-12T14:17:28.052Z,42
2019-02-12T14:18:30.248Z,39
2019-02-12T14:19:32.368Z,38
2019-02-12T14:20:34.879Z,37
2019-02-12T14:21:37.015Z,35
2019-02-12T14:22:39.402Z,36
2019-02-12T14:23:41.789Z,37
2019-02-12T14:24:44.236Z,38
2019-02-12T14:25:46.379Z,39
2019-02-12T14:26:48.516Z,39
2019-02-12T14:27:50.632Z,40
2019-02-12T14:28:52.755Z,38
2019-02-12T14:29:54.895Z,34
2019-02-12T14:30:57.400Z,35
2019-02-12T14:31:59.570Z,35
2019-02-12T14:33:01.990Z,35
2019-02-12T14:34:04.455Z,35
2019-02-12T14:35:06.591Z,37
2019-02-12T14:36:09.122Z,37
2019-02-12T14:37:11.915Z,38
2019-02-12T14:38:14.038Z,38
2019-02-12T14:39:16.863Z,37
2019-02-12T14:40:19.004Z,37
2019-02-12T14:41:21.144Z,37
2019-02-12T14:42:23.324Z,36
2019-02-12T14:43:25.474Z,36
2019-02-12T14:44:27.591Z,37
2019-02-12T14:45:29.742Z,38
2019-02-12T14:46:31.866Z,40
2019-02-12T14:47:33.991Z,39
2019-02-12T14:48:36.425Z,39
2019-02-12T14:49:38.950Z,39
2019-02-12T14:50:41.472Z,39
2019-02-12T14:51:43.617Z,39
2019-02-12T14:52:45.784Z,38
2019-02-12T14:53:47.950Z,34
2019-02-12T14:54:50.117Z,32